createdAt,value
2022-10-19T00:00:13.672Z,1015.43
2022-10-19T00:01:14.268Z,1015.43
2022-10-19T00:02:14.934Z,1015.43
2022-10-19T00:03:18.297Z,1015.43
2022-10-19T00:04:17.153Z,1015.43
2022-10-19T00:05:18.548Z,1015.32
2022-10-19T00:06:19.150Z,1015.28
2022-10-19T00:07:19.750Z,1015.27
2022-10-19T00:08:20.415Z,1015.27
2022-10-19T00:09:21.016Z,1015.25
2022-10-19T00:10:21.617Z,1015.29
2022-10-19T00:11:22.218Z,1015.31
2022-10-19T00:12:22.823Z,1015.30
2022-10-19T00:13:23.422Z,1015.32
2022-10-19T00:14:24.025Z,1015.35
2022-10-19T00:15:24.617Z,1015.29
2022-10-19T00:16:25.217Z,1015.30
2022-10-19T00:17:25.816Z,1015.15
2022-10-19T00:18:26.416Z,1015.25
2022-10-19T00:19:27.009Z,1015.03
2022-10-19T00:20:27.612Z,1015.06
2022-10-19T00:21:28.215Z,1015.06
2022-10-19T00:22:28.877Z,1014.98
2022-10-19T00:23:29.475Z,1014.97
2022-10-19T00:24:30.068Z,1014.98
2022-10-19T00:25:30.666Z,1014.90
2022-10-19T00:26:31.264Z,1014.85
2022-10-19T00:27:31.863Z,1014.88
2022-10-19T00:28:32.499Z,1014.88
2022-10-19T00:29:33.103Z,1014.79
2022-10-19T00:30:33.701Z,1014.71
2022-10-19T00:31:34.299Z,1014.77
2022-10-19T00:32:35.275Z,1014.79
2022-10-19T00:33:36.063Z,1014.85
2022-10-19T00:34:36.812Z,1014.77
2022-10-19T00:35:37.408Z,1014.69
2022-10-19T00:36:38.004Z,1014.67
2022-10-19T00:37:38.609Z,1014.63
2022-10-19T00:38:39.317Z,1014.69
2022-10-19T00:39:40.012Z,1014.67
2022-10-19T00:40:40.639Z,1014.55
2022-10-19T00:41:41.235Z,1014.58
2022-10-19T00:42:41.987Z,1014.56
2022-10-19T00:43:42.589Z,1014.61
2022-10-19T00:44:43.239Z,1014.62
2022-10-19T00:45:43.841Z,1014.55
2022-10-19T00:46:44.441Z,1014.50
2022-10-19T00:47:45.041Z,1014.53
2022-10-19T00:48:45.663Z,1014.54
2022-10-19T00:49:46.393Z,1014.45
2022-10-19T00:50:46.988Z,1014.56
2022-10-19T00:51:47.589Z,1014.48
2022-10-19T00:52:48.188Z,1014.53
2022-10-19T00:53:48.855Z,1014.55
2022-10-19T00:54:49.444Z,1014.52
2022-10-19T00:55:50.042Z,1014.52
2022-10-19T00:56:50.640Z,1014.49
2022-10-19T00:58:51.837Z,1014.43
2022-10-19T00:59:52.421Z,1014.48
2022-10-19T01:00:53.061Z,1014.41
2022-10-19T01:01:53.646Z,1014.48
2022-10-19T01:02:54.239Z,1014.42
2022-10-19T01:03:54.830Z,1014.48
2022-10-19T01:04:55.421Z,1014.42
2022-10-19T01:05:56.815Z,1014.31
2022-10-19T01:06:57.408Z,1014.34
2022-10-19T01:07:57.999Z,1014.38
2022-10-19T01:08:58.601Z,1014.37
2022-10-19T01:09:59.244Z,1014.37
2022-10-19T01:10:59.839Z,1014.37
2022-10-19T01:12:00.430Z,1014.29
2022-10-19T01:13:01.022Z,1014.31
2022-10-19T01:14:01.616Z,1014.29
2022-10-19T01:15:02.206Z,1014.36
2022-10-19T01:16:02.804Z,1014.31
2022-10-19T01:17:03.390Z,1014.40
2022-10-19T01:18:03.984Z,1014.42
2022-10-19T01:19:04.581Z,1014.39
2022-10-19T01:20:05.166Z,1014.52
2022-10-19T01:21:05.755Z,1014.48
2022-10-19T01:22:06.350Z,1014.50
2022-10-19T01:23:06.940Z,1014.45
2022-10-19T01:24:07.534Z,1014.44
2022-10-19T01:25:08.125Z,1014.48
2022-10-19T01:26:08.716Z,1014.47
2022-10-19T01:27:09.309Z,1014.54
2022-10-19T01:28:09.901Z,1014.38
2022-10-19T01:29:10.559Z,1014.47
2022-10-19T01:30:11.178Z,1014.50
2022-10-19T01:31:11.769Z,1014.58
2022-10-19T01:32:12.364Z,1014.50
2022-10-19T01:33:12.953Z,1014.44
2022-10-19T01:34:13.547Z,1014.40
2022-10-19T01:35:14.139Z,1014.47
2022-10-19T01:36:14.729Z,1014.33
2022-10-19T01:37:15.321Z,1014.40
2022-10-19T01:38:15.918Z,1014.40
2022-10-19T01:39:16.556Z,1014.45
2022-10-19T01:40:17.148Z,1014.44
2022-10-19T01:41:17.816Z,1014.45
2022-10-19T01:42:18.434Z,1014.45
2022-10-19T01:43:19.025Z,1014.42
2022-10-19T01:44:19.668Z,1014.39
2022-10-19T01:45:21.061Z,1014.45
2022-10-19T01:46:21.659Z,1014.23
2022-10-19T01:47:22.350Z,1014.31
2022-10-19T01:48:22.940Z,1014.19
2022-10-19T01:49:23.532Z,1014.23
2022-10-19T01:50:24.184Z,1014.16
2022-10-19T01:51:24.779Z,1014.16
2022-10-19T01:52:25.382Z,1014.16
2022-10-19T01:53:25.961Z,1014.13
2022-10-19T01:54:26.552Z,1014.16
2022-10-19T01:55:27.145Z,1014.11
2022-10-19T01:56:27.738Z,1014.12
2022-10-19T01:57:28.330Z,1014.04
2022-10-19T01:58:28.924Z,1013.99
2022-10-19T01:59:29.515Z,1013.98
2022-10-19T02:00:30.108Z,1014.09
2022-10-19T02:01:30.698Z,1013.97
2022-10-19T02:02:31.568Z,1013.92
2022-10-19T02:03:32.273Z,1013.92
2022-10-19T02:04:32.867Z,1013.89
2022-10-19T02:05:33.454Z,1013.90
2022-10-19T02:06:34.096Z,1013.86
2022-10-19T02:07:34.745Z,1013.80
2022-10-19T02:08:35.336Z,1013.71
2022-10-19T02:09:35.926Z,1013.66
2022-10-19T02:10:36.518Z,1013.56
2022-10-19T02:11:37.112Z,1013.59
2022-10-19T02:12:37.730Z,1013.50
2022-10-19T02:13:38.373Z,1013.47
2022-10-19T02:14:38.965Z,1013.45
2022-10-19T02:15:39.555Z,1013.42
2022-10-19T02:16:40.145Z,1013.51
2022-10-19T02:17:40.743Z,1013.45
2022-10-19T02:18:41.331Z,1013.51
2022-10-19T02:19:41.921Z,1013.47
2022-10-19T02:20:42.514Z,1013.50
2022-10-19T02:21:43.106Z,1013.47
2022-10-19T02:22:43.696Z,1013.41
2022-10-19T02:23:44.290Z,1013.38
2022-10-19T02:24:44.883Z,1013.33
2022-10-19T02:25:45.530Z,1013.30
2022-10-19T02:26:46.122Z,1013.24
2022-10-19T02:27:46.715Z,1013.41
2022-10-19T02:28:47.307Z,1013.35
2022-10-19T02:29:47.898Z,1013.48
2022-10-19T02:30:48.488Z,1013.37
2022-10-19T02:31:49.080Z,1013.57
2022-10-19T02:32:49.672Z,1013.49
2022-10-19T02:33:50.261Z,1013.51
2022-10-19T02:34:50.854Z,1013.57
2022-10-19T02:35:51.448Z,1013.64
2022-10-19T02:36:52.039Z,1013.62
2022-10-19T02:37:52.630Z,1013.52
2022-10-19T02:38:53.222Z,1013.39
2022-10-19T02:39:53.813Z,1013.38
2022-10-19T02:40:54.406Z,1013.25
2022-10-19T02:41:55.152Z,1013.18
2022-10-19T02:42:55.740Z,1013.35
2022-10-19T02:43:56.332Z,1013.27
2022-10-19T02:44:56.924Z,1013.22
2022-10-19T02:45:57.564Z,1013.20
2022-10-19T02:46:58.157Z,1013.07
2022-10-19T02:47:58.748Z,1013.02
2022-10-19T02:48:59.491Z,1013.02
2022-10-19T02:50:00.140Z,1013.02
2022-10-19T02:51:00.786Z,1013.02
2022-10-19T02:52:01.374Z,1013.02
2022-10-19T02:53:01.966Z,1013.02
2022-10-19T02:54:05.009Z,1013.04
2022-10-19T02:55:04.149Z,1013.07
2022-10-19T02:56:04.744Z,1013.11
2022-10-19T02:57:05.340Z,1013.06
2022-10-19T02:58:06.089Z,1012.99
2022-10-19T02:59:06.682Z,1012.90
2022-10-19T03:00:07.273Z,1012.84
2022-10-19T03:01:07.939Z,1012.92
2022-10-19T03:02:08.525Z,1012.86
2022-10-19T03:03:09.121Z,1012.90
2022-10-19T03:04:09.708Z,1012.99
2022-10-19T03:05:10.302Z,1012.94
2022-10-19T03:06:10.889Z,1012.90
2022-10-19T03:07:11.481Z,1012.79
2022-10-19T03:08:12.074Z,1012.87
2022-10-19T03:09:12.666Z,1012.90
2022-10-19T03:10:13.254Z,1012.87
2022-10-19T03:11:13.845Z,1012.84
2022-10-19T03:12:14.441Z,1012.86
2022-10-19T03:13:15.027Z,1012.79
2022-10-19T03:14:15.623Z,1012.73
2022-10-19T03:15:16.213Z,1012.64
2022-10-19T03:16:16.804Z,1012.62
2022-10-19T03:17:17.397Z,1012.54
2022-10-19T03:18:18.198Z,1012.54
2022-10-19T03:19:18.793Z,1012.64
2022-10-19T03:20:19.385Z,1012.61
2022-10-19T03:21:20.042Z,1012.63
2022-10-19T03:22:20.628Z,1012.71
2022-10-19T03:23:21.217Z,1012.80
2022-10-19T03:24:21.811Z,1012.73
2022-10-19T03:25:22.473Z,1012.74
2022-10-19T03:26:23.067Z,1012.69
2022-10-19T03:27:23.660Z,1012.68
2022-10-19T03:28:24.257Z,1012.71
2022-10-19T03:29:24.905Z,1012.71
2022-10-19T03:30:25.497Z,1012.66
2022-10-19T03:31:26.090Z,1012.68
2022-10-19T03:32:26.681Z,1012.65
2022-10-19T03:33:27.284Z,1012.51
2022-10-19T03:34:27.864Z,1012.61
2022-10-19T03:35:28.514Z,1012.51
2022-10-19T03:36:29.107Z,1012.46
2022-10-19T03:37:29.699Z,1012.47
2022-10-19T03:38:30.352Z,1012.45
2022-10-19T03:39:30.942Z,1012.28
2022-10-19T03:40:31.534Z,1012.39
2022-10-19T03:41:32.126Z,1012.44
2022-10-19T03:42:32.778Z,1012.39
2022-10-19T03:43:33.369Z,1012.35
2022-10-19T03:44:34.110Z,1012.52
2022-10-19T03:45:34.699Z,1012.42
2022-10-19T03:46:36.139Z,1012.42
2022-10-19T03:47:36.900Z,1012.44
2022-10-19T03:48:37.545Z,1012.38
2022-10-19T03:49:40.240Z,1012.38
2022-10-19T03:50:39.788Z,1012.30
2022-10-19T03:51:40.368Z,1012.27
2022-10-19T03:52:40.958Z,1012.29
2022-10-19T03:53:41.604Z,1012.32
2022-10-19T03:54:42.191Z,1012.24
2022-10-19T03:55:42.785Z,1012.18
2022-10-19T03:56:43.377Z,1012.16
2022-10-19T03:57:43.969Z,1012.16
2022-10-19T03:58:44.559Z,1012.16
2022-10-19T03:59:45.152Z,1012.18
2022-10-19T04:00:45.803Z,1012.18
2022-10-19T04:01:46.530Z,1012.11
2022-10-19T04:02:47.119Z,1012.07
2022-10-19T04:03:47.712Z,1012.11
2022-10-19T04:04:48.299Z,1012.13
2022-10-19T04:05:48.891Z,1012.21
2022-10-19T04:06:49.485Z,1012.25
2022-10-19T04:07:50.081Z,1012.27
2022-10-19T04:08:50.666Z,1012.32
2022-10-19T04:09:51.258Z,1012.23
2022-10-19T04:10:51.851Z,1012.25
2022-10-19T04:11:52.442Z,1012.21
2022-10-19T04:12:53.981Z,1012.13
2022-10-19T04:13:54.616Z,1012.25
2022-10-19T04:14:57.655Z,1012.13
2022-10-19T04:15:56.748Z,1012.13
2022-10-19T04:16:57.340Z,1012.19
2022-10-19T04:17:57.989Z,1012.13
2022-10-19T04:18:58.580Z,1012.08
2022-10-19T04:19:59.322Z,1012.13
2022-10-19T04:20:59.911Z,1012.19
2022-10-19T04:22:00.501Z,1012.19
2022-10-19T04:23:01.095Z,1012.27
2022-10-19T04:24:01.688Z,1012.15
2022-10-19T04:25:02.282Z,1012.26
2022-10-19T04:26:02.878Z,1012.27
2022-10-19T04:27:03.467Z,1012.21
2022-10-19T04:28:04.058Z,1012.18
2022-10-19T04:29:04.700Z,1012.28
2022-10-19T04:30:05.269Z,1012.26
2022-10-19T04:31:05.859Z,1012.18
2022-10-19T04:32:06.450Z,1012.18
2022-10-19T04:33:07.045Z,1012.18
2022-10-19T04:34:07.639Z,1012.11
2022-10-19T04:35:08.232Z,1012.01
2022-10-19T04:36:08.893Z,1012.01
2022-10-19T04:37:09.472Z,1012.12
2022-10-19T04:38:10.066Z,1012.30
2022-10-19T04:39:10.660Z,1012.34
2022-10-19T04:40:14.922Z,1012.37
2022-10-19T04:41:12.836Z,1012.32
2022-10-19T04:42:13.432Z,1012.23
2022-10-19T04:43:14.022Z,1012.22
2022-10-19T04:44:14.657Z,1012.20
2022-10-19T04:45:15.226Z,1012.28
2022-10-19T04:46:15.817Z,1012.28
2022-10-19T04:47:16.408Z,1012.11
2022-10-19T04:48:16.997Z,1012.17
2022-10-19T04:49:19.565Z,1012.22
2022-10-19T04:50:19.173Z,1012.17
2022-10-19T04:51:19.762Z,1012.22
2022-10-19T04:52:20.404Z,1012.27
2022-10-19T04:53:21.270Z,1012.22
2022-10-19T04:54:21.871Z,1012.24
2022-10-19T04:55:22.465Z,1012.17
2022-10-19T04:56:23.107Z,1012.20
2022-10-19T04:57:23.699Z,1012.33
2022-10-19T04:58:24.342Z,1012.32
2022-10-19T04:59:24.932Z,1012.34
2022-10-19T05:00:25.528Z,1012.50
2022-10-19T05:01:26.178Z,1012.48
2022-10-19T05:02:26.771Z,1012.38
2022-10-19T05:03:27.362Z,1012.34
2022-10-19T05:04:27.956Z,1012.38
2022-10-19T05:05:28.549Z,1012.51
2022-10-19T05:06:29.139Z,1012.51
2022-10-19T05:07:29.732Z,1012.42
2022-10-19T05:08:30.324Z,1012.48
2022-10-19T05:09:31.767Z,1012.36
2022-10-19T05:10:32.358Z,1012.44
2022-10-19T05:11:33.003Z,1012.50
2022-10-19T05:12:33.599Z,1012.55
2022-10-19T05:13:34.247Z,1012.59
2022-10-19T05:14:36.751Z,1012.60
2022-10-19T05:15:36.425Z,1012.66
2022-10-19T05:16:37.014Z,1012.55
2022-10-19T05:17:37.605Z,1012.50
2022-10-19T05:18:38.198Z,1012.50
2022-10-19T05:19:38.788Z,1012.50
2022-10-19T05:20:39.488Z,1012.49
2022-10-19T05:21:40.081Z,1012.55
2022-10-19T05:22:40.677Z,1012.41
2022-10-19T05:23:41.260Z,1012.48
2022-10-19T05:24:41.852Z,1012.43
2022-10-19T05:25:42.443Z,1012.29
2022-10-19T05:26:43.037Z,1012.41
2022-10-19T05:27:43.629Z,1012.29
2022-10-19T05:28:44.286Z,1012.38
2022-10-19T05:29:44.884Z,1012.30
2022-10-19T05:30:48.983Z,1012.33
2022-10-19T05:31:47.115Z,1012.21
2022-10-19T05:32:48.559Z,1012.30
2022-10-19T05:33:49.204Z,1012.31
2022-10-19T05:34:49.794Z,1012.36
2022-10-19T05:35:50.390Z,1012.31
2022-10-19T05:36:50.979Z,1012.33
2022-10-19T05:37:51.574Z,1012.39
2022-10-19T05:38:52.166Z,1012.40
2022-10-19T05:39:52.758Z,1012.38
2022-10-19T05:40:53.804Z,1012.33
2022-10-19T05:41:54.435Z,1012.44
2022-10-19T05:42:55.076Z,1012.31
2022-10-19T05:43:55.669Z,1012.32
2022-10-19T05:44:56.264Z,1012.49
2022-10-19T05:45:56.855Z,1012.54
2022-10-19T05:46:57.447Z,1012.71
2022-10-19T05:47:58.040Z,1012.88
2022-10-19T05:48:58.637Z,1013.04
2022-10-19T05:50:00.036Z,1013.14
2022-10-19T05:51:00.618Z,1013.12
2022-10-19T05:52:01.214Z,1013.30
2022-10-19T05:53:01.806Z,1013.33
2022-10-19T05:54:02.397Z,1013.21
2022-10-19T05:55:03.006Z,1013.27
2022-10-19T05:56:03.586Z,1013.19
2022-10-19T05:57:04.176Z,1013.28
2022-10-19T05:58:04.772Z,1013.35
2022-10-19T05:59:05.364Z,1013.40
2022-10-19T06:00:05.956Z,1013.38
2022-10-19T06:01:06.549Z,1013.30
2022-10-19T06:02:07.173Z,1013.24
2022-10-19T06:03:07.746Z,1013.19
2022-10-19T06:04:08.371Z,1013.42
2022-10-19T06:05:08.953Z,1013.45
2022-10-19T06:06:09.547Z,1013.31
2022-10-19T06:07:10.138Z,1013.37
2022-10-19T06:08:10.732Z,1013.31
2022-10-19T06:09:11.324Z,1013.27
2022-10-19T06:10:11.918Z,1013.01
2022-10-19T06:11:12.508Z,1013.04
2022-10-19T06:12:15.738Z,1012.88
2022-10-19T06:13:14.739Z,1012.94
2022-10-19T06:14:15.339Z,1012.96
2022-10-19T06:15:15.927Z,1013.06
2022-10-19T06:16:16.522Z,1013.04
2022-10-19T06:17:17.111Z,1013.04
2022-10-19T06:18:17.705Z,1012.93
2022-10-19T06:19:18.298Z,1012.78
2022-10-19T06:20:18.891Z,1012.70
2022-10-19T06:21:19.483Z,1012.79
2022-10-19T06:22:20.078Z,1013.17
2022-10-19T06:23:20.670Z,1013.40
2022-10-19T06:24:21.263Z,1013.50
2022-10-19T06:25:21.857Z,1013.54
2022-10-19T06:26:22.449Z,1013.52
2022-10-19T06:27:23.089Z,1013.51
2022-10-19T06:28:23.675Z,1013.40
2022-10-19T06:29:24.331Z,1013.35
2022-10-19T06:30:24.958Z,1013.18
2022-10-19T06:31:25.529Z,1013.19
2022-10-19T06:32:26.120Z,1013.20
2022-10-19T06:33:26.762Z,1013.34
2022-10-19T06:34:27.396Z,1013.40
2022-10-19T06:35:27.995Z,1013.40
2022-10-19T06:36:28.587Z,1013.35
2022-10-19T06:37:29.237Z,1013.30
2022-10-19T06:38:29.884Z,1013.35
2022-10-19T06:39:30.475Z,1013.34
2022-10-19T06:40:31.112Z,1013.40
2022-10-19T06:41:31.706Z,1013.28
2022-10-19T06:42:32.298Z,1013.29
2022-10-19T06:43:32.939Z,1013.29
2022-10-19T06:44:33.533Z,1013.48
2022-10-19T06:45:35.986Z,1013.53
2022-10-19T06:46:35.717Z,1013.58
2022-10-19T06:47:36.717Z,1013.57
2022-10-19T06:48:37.442Z,1013.62
2022-10-19T06:49:38.034Z,1013.59
2022-10-19T06:50:38.679Z,1013.56
2022-10-19T06:51:39.319Z,1013.56
2022-10-19T06:52:40.003Z,1013.56
2022-10-19T06:53:40.616Z,1013.62
2022-10-19T06:54:41.214Z,1013.65
2022-10-19T06:55:41.858Z,1013.77
2022-10-19T06:56:42.517Z,1013.71
2022-10-19T06:57:43.103Z,1013.71
2022-10-19T06:58:43.699Z,1013.79
2022-10-19T06:59:44.346Z,1013.93
2022-10-19T07:00:45.028Z,1013.96
2022-10-19T07:01:45.637Z,1013.90
2022-10-19T07:02:46.286Z,1013.85
2022-10-19T07:03:46.908Z,1013.91
2022-10-19T07:04:47.501Z,1014.24
2022-10-19T07:05:48.151Z,1014.27
2022-10-19T07:06:48.859Z,1014.18
2022-10-19T07:07:49.561Z,1013.90
2022-10-19T07:08:50.466Z,1013.96
2022-10-19T07:09:51.112Z,1013.96
2022-10-19T07:10:51.786Z,1013.95
2022-10-19T07:11:52.403Z,1013.91
2022-10-19T07:12:53.052Z,1013.91
2022-10-19T07:13:53.671Z,1014.01
2022-10-19T07:14:54.259Z,1014.01
2022-10-19T07:15:54.851Z,1013.97
2022-10-19T07:16:55.596Z,1014.03
2022-10-19T07:17:56.192Z,1014.11
2022-10-19T07:18:56.783Z,1014.12
2022-10-19T07:19:57.374Z,1014.27
2022-10-19T07:20:57.973Z,1014.36
2022-10-19T07:21:58.623Z,1014.27
2022-10-19T07:22:59.242Z,1014.42
2022-10-19T07:23:59.837Z,1014.36
2022-10-19T07:25:00.440Z,1014.41
2022-10-19T07:26:01.031Z,1014.41
2022-10-19T07:27:01.683Z,1014.43
2022-10-19T07:28:02.277Z,1014.46
2022-10-19T07:29:02.868Z,1014.46
2022-10-19T07:30:03.518Z,1014.42
2022-10-19T07:31:04.130Z,1014.39
2022-10-19T07:32:04.726Z,1014.45
2022-10-19T07:33:05.403Z,1014.46
2022-10-19T07:34:06.032Z,1014.42
2022-10-19T07:35:06.707Z,1014.42
2022-10-19T07:36:07.329Z,1014.34
2022-10-19T07:37:07.978Z,1014.35
2022-10-19T07:38:08.590Z,1014.48
2022-10-19T07:39:09.195Z,1014.47
2022-10-19T07:40:09.787Z,1014.43
2022-10-19T07:41:10.383Z,1014.46
2022-10-19T07:42:11.002Z,1014.24
2022-10-19T07:43:11.635Z,1014.08
2022-10-19T07:44:15.523Z,1014.17
2022-10-19T07:45:13.970Z,1014.22
2022-10-19T07:46:14.638Z,1014.19
2022-10-19T07:47:15.245Z,1014.01
2022-10-19T07:48:16.093Z,1013.88
2022-10-19T07:49:16.709Z,1013.66
2022-10-19T07:50:17.302Z,1013.67
2022-10-19T07:51:17.932Z,1013.66
2022-10-19T07:52:18.586Z,1013.83
2022-10-19T07:53:19.178Z,1013.77
2022-10-19T07:54:20.029Z,1013.84
2022-10-19T07:55:20.644Z,1013.76
2022-10-19T07:56:21.289Z,1013.70
2022-10-19T07:57:22.209Z,1013.77
2022-10-19T07:58:22.881Z,1013.79
2022-10-19T07:59:23.547Z,1013.67
2022-10-19T08:00:24.312Z,1013.75
2022-10-19T08:01:25.004Z,1013.86
2022-10-19T08:02:30.887Z,1013.87
2022-10-19T08:04:58.889Z,1013.97
2022-10-19T08:05:30.406Z,1013.95
2022-10-19T08:06:30.976Z,1013.98
2022-10-19T08:07:31.571Z,1014.04
2022-10-19T08:08:32.232Z,1013.99
2022-10-19T08:09:51.952Z,1014.01
2022-10-19T08:10:34.350Z,1014.05
2022-10-19T08:11:34.946Z,1014.11
2022-10-19T08:12:35.942Z,1014.08
2022-10-19T08:13:36.787Z,1014.01
2022-10-19T08:14:37.375Z,1013.99
2022-10-19T08:15:37.971Z,1013.84
2022-10-19T08:16:38.560Z,1013.80
2022-10-19T08:17:39.152Z,1013.73
2022-10-19T08:18:39.746Z,1013.71
2022-10-19T08:19:40.340Z,1013.70
2022-10-19T08:20:40.931Z,1013.78
2022-10-19T08:21:41.524Z,1013.89
2022-10-19T08:22:42.178Z,1013.83
2022-10-19T08:23:42.773Z,1013.77
2022-10-19T08:24:43.365Z,1013.74
2022-10-19T08:25:44.008Z,1013.60
2022-10-19T08:26:44.604Z,1013.60
2022-10-19T08:27:45.196Z,1013.48
2022-10-19T08:28:45.787Z,1013.48
2022-10-19T08:29:46.442Z,1013.48
2022-10-19T08:30:47.033Z,1013.53
2022-10-19T08:31:47.628Z,1013.47
2022-10-19T08:32:48.221Z,1013.54
2022-10-19T08:33:48.811Z,1013.57
2022-10-19T08:34:49.406Z,1013.56
2022-10-19T08:35:50.058Z,1013.72
2022-10-19T08:36:50.913Z,1013.77
2022-10-19T08:37:51.902Z,1013.86
2022-10-19T08:38:52.613Z,1013.91
2022-10-19T08:39:53.210Z,1013.83
2022-10-19T08:40:53.800Z,1014.08
2022-10-19T08:41:54.394Z,1014.17
2022-10-19T08:42:54.986Z,1014.32
2022-10-19T08:43:55.631Z,1014.57
2022-10-19T08:44:56.223Z,1014.57
2022-10-19T08:45:56.877Z,1014.56
2022-10-19T08:47:00.444Z,1014.49
2022-10-19T08:47:59.907Z,1014.49
2022-10-19T08:49:00.500Z,1014.52
2022-10-19T08:50:01.153Z,1014.46
2022-10-19T08:51:01.747Z,1014.62
2022-10-19T08:52:02.399Z,1014.73
2022-10-19T08:53:02.989Z,1014.78
2022-10-19T08:54:03.591Z,1014.79
2022-10-19T08:55:04.187Z,1014.93
2022-10-19T08:56:04.937Z,1014.98
2022-10-19T08:57:05.562Z,1015.05
2022-10-19T08:58:06.155Z,1015.14
2022-10-19T08:59:06.808Z,1015.20
2022-10-19T09:00:07.457Z,1014.91
2022-10-19T09:01:08.051Z,1014.77
2022-10-19T09:02:08.644Z,1014.97
2022-10-19T09:03:09.244Z,1015.00
2022-10-19T09:04:09.827Z,1015.03
2022-10-19T09:05:10.421Z,1014.93
2022-10-19T09:06:11.011Z,1014.78
2022-10-19T09:07:11.606Z,1014.55
2022-10-19T09:08:16.839Z,1014.64
2022-10-19T09:09:14.588Z,1014.90
2022-10-19T09:10:15.176Z,1014.79
2022-10-19T09:11:15.822Z,1014.81
2022-10-19T09:12:16.415Z,1014.83
2022-10-19T09:13:17.010Z,1014.73
2022-10-19T09:14:17.665Z,1014.82
2022-10-19T09:15:18.256Z,1014.95
2022-10-19T09:16:18.911Z,1014.90
2022-10-19T09:17:19.501Z,1015.07
2022-10-19T09:18:20.098Z,1015.22
2022-10-19T09:19:20.691Z,1015.47
2022-10-19T09:20:21.281Z,1015.61
2022-10-19T09:21:28.163Z,1015.74
2022-10-19T09:22:23.459Z,1015.70
2022-10-19T09:23:24.052Z,1015.51
2022-10-19T09:24:24.646Z,1015.49
2022-10-19T09:25:25.238Z,1015.51
2022-10-19T09:26:25.834Z,1015.61
2022-10-19T09:27:26.637Z,1015.64
2022-10-19T09:28:31.472Z,1015.78
2022-10-19T09:29:28.816Z,1015.67
2022-10-19T09:30:29.405Z,1015.58
2022-10-19T09:31:31.738Z,1015.53
2022-10-19T09:32:31.775Z,1015.75
2022-10-19T09:33:32.614Z,1015.89
2022-10-19T09:34:33.209Z,1015.77
2022-10-19T09:35:33.803Z,1015.75
2022-10-19T09:36:50.065Z,1015.75
2022-10-19T09:37:35.989Z,1015.72
2022-10-19T09:38:36.579Z,1015.77
2022-10-19T09:39:37.171Z,1015.79
2022-10-19T09:40:37.763Z,1015.81
2022-10-19T09:41:38.360Z,1015.84
2022-10-19T09:42:38.955Z,1015.85
2022-10-19T09:43:39.544Z,1015.65
2022-10-19T09:44:40.143Z,1015.64
2022-10-19T09:45:40.740Z,1015.62
2022-10-19T09:46:41.405Z,1015.64
2022-10-19T09:47:42.091Z,1015.58
2022-10-19T09:48:42.686Z,1015.52
2022-10-19T09:49:43.287Z,1015.48
2022-10-19T09:50:43.957Z,1015.54
2022-10-19T09:51:44.544Z,1015.60
2022-10-19T09:52:45.139Z,1015.71
2022-10-19T09:53:45.734Z,1015.73
2022-10-19T09:54:46.329Z,1015.65
2022-10-19T09:55:46.923Z,1015.66
2022-10-19T09:56:47.513Z,1015.75
2022-10-19T09:57:48.263Z,1015.75
2022-10-19T09:58:48.857Z,1015.77
2022-10-19T09:59:49.510Z,1015.84
2022-10-19T10:00:50.115Z,1015.71
2022-10-19T10:01:50.844Z,1015.65
2022-10-19T10:02:51.484Z,1015.68
2022-10-19T10:03:55.232Z,1015.59
2022-10-19T10:04:53.669Z,1015.68
2022-10-19T10:05:54.320Z,1015.67
2022-10-19T10:06:54.918Z,1015.77
2022-10-19T10:07:55.514Z,1015.64
2022-10-19T10:08:56.309Z,1015.66
2022-10-19T10:09:56.958Z,1015.60
2022-10-19T10:10:57.551Z,1015.53
2022-10-19T10:11:58.209Z,1015.56
2022-10-19T10:12:58.805Z,1015.54
2022-10-19T10:13:59.399Z,1015.55
2022-10-19T10:14:59.991Z,1015.63
2022-10-19T10:16:00.591Z,1015.69
2022-10-19T10:17:01.233Z,1015.62
2022-10-19T10:18:01.827Z,1015.67
2022-10-19T10:19:02.433Z,1015.71
2022-10-19T10:20:03.037Z,1015.77
2022-10-19T10:21:05.829Z,1015.81
2022-10-19T10:22:05.229Z,1015.87
2022-10-19T10:23:05.820Z,1015.84
2022-10-19T10:24:06.424Z,1015.79
2022-10-19T10:25:07.025Z,1015.92
2022-10-19T10:26:07.620Z,1015.85
2022-10-19T10:27:08.247Z,1015.86
2022-10-19T10:28:08.821Z,1015.92
2022-10-19T10:29:09.425Z,1015.81
2022-10-19T10:30:10.021Z,1015.86
2022-10-19T10:31:10.617Z,1015.76
2022-10-19T10:32:11.216Z,1015.74
2022-10-19T10:33:20.528Z,1015.71
2022-10-19T10:34:28.394Z,1015.65
2022-10-19T10:35:15.193Z,1015.57
2022-10-19T10:36:15.803Z,1015.59
2022-10-19T10:37:16.398Z,1015.53
2022-10-19T10:38:17.004Z,1015.38
2022-10-19T10:39:17.616Z,1015.28
2022-10-19T10:40:21.307Z,1015.27
2022-10-19T10:41:19.806Z,1015.44
2022-10-19T10:42:20.464Z,1015.53
2022-10-19T10:43:21.049Z,1015.47
2022-10-19T10:44:21.641Z,1015.59
2022-10-19T10:45:22.228Z,1015.61
2022-10-19T10:46:22.821Z,1015.62
2022-10-19T10:47:23.412Z,1015.63
2022-10-19T10:48:24.003Z,1015.60
2022-10-19T10:49:24.595Z,1015.69
2022-10-19T10:50:25.189Z,1015.68
2022-10-19T10:51:25.782Z,1015.74
2022-10-19T10:52:26.375Z,1015.72
2022-10-19T10:53:26.969Z,1015.81
2022-10-19T10:54:27.562Z,1015.79
2022-10-19T10:55:28.153Z,1015.84
2022-10-19T10:56:28.747Z,1015.77
2022-10-19T10:57:30.195Z,1015.75
2022-10-19T10:58:30.790Z,1015.78
2022-10-19T10:59:31.382Z,1015.79
2022-10-19T11:00:32.019Z,1015.82
2022-10-19T11:01:32.720Z,1015.81
2022-10-19T11:02:33.316Z,1015.88
2022-10-19T11:03:33.963Z,1015.98
2022-10-19T11:04:34.557Z,1015.89
2022-10-19T11:05:35.150Z,1015.93
2022-10-19T11:06:36.908Z,1015.96
2022-10-19T11:07:37.822Z,1015.96
2022-10-19T11:08:38.684Z,1015.88
2022-10-19T11:09:39.288Z,1015.98
2022-10-19T11:10:39.886Z,1016.04
2022-10-19T11:11:40.476Z,1016.07
2022-10-19T11:12:41.120Z,1015.96
2022-10-19T11:13:42.514Z,1015.96
2022-10-19T11:14:43.101Z,1015.93
2022-10-19T11:15:43.696Z,1015.96
2022-10-19T11:16:44.443Z,1015.88
2022-10-19T11:17:45.037Z,1015.93
2022-10-19T11:18:45.629Z,1015.80
2022-10-19T11:19:46.296Z,1015.78
2022-10-19T11:20:46.874Z,1015.70
2022-10-19T11:21:47.469Z,1015.67
2022-10-19T11:22:48.063Z,1015.56
2022-10-19T11:23:48.656Z,1015.60
2022-10-19T11:24:49.279Z,1015.55
2022-10-19T11:25:49.865Z,1015.54
2022-10-19T11:26:50.532Z,1015.58
2022-10-19T11:27:51.173Z,1015.58
2022-10-19T11:28:51.779Z,1015.66
2022-10-19T11:29:52.386Z,1015.61
2022-10-19T11:30:53.781Z,1015.75
2022-10-19T11:31:54.443Z,1015.83
2022-10-19T11:32:55.893Z,1015.85
2022-10-19T11:33:56.495Z,1015.85
2022-10-19T11:34:57.081Z,1015.91
2022-10-19T11:35:57.675Z,1015.88
2022-10-19T11:36:58.430Z,1015.73
2022-10-19T11:38:17.947Z,1015.76
2022-10-19T11:39:00.605Z,1015.73
2022-10-19T11:40:01.207Z,1015.88
2022-10-19T11:41:18.592Z,1015.88
2022-10-19T11:42:03.396Z,1016.02
2022-10-19T11:43:03.991Z,1016.06
2022-10-19T11:44:04.696Z,1016.00
2022-10-19T11:45:06.259Z,1015.95
2022-10-19T11:46:06.864Z,1015.89
2022-10-19T11:47:07.480Z,1015.78
2022-10-19T11:48:08.087Z,1015.87
2022-10-19T11:49:08.831Z,1015.82
2022-10-19T11:51:20.960Z,1015.76
2022-10-19T11:52:11.677Z,1015.77
2022-10-19T11:53:12.273Z,1015.84
2022-10-19T11:54:14.870Z,1015.68
2022-10-19T11:55:14.560Z,1015.60
2022-10-19T11:56:15.155Z,1015.65
2022-10-19T11:57:15.768Z,1015.54
2022-10-19T11:58:16.384Z,1015.77
2022-10-19T11:59:16.973Z,1015.77
2022-10-19T12:00:37.606Z,1015.82
2022-10-19T12:01:19.163Z,1015.74
2022-10-19T12:02:19.799Z,1015.42
2022-10-19T12:03:20.409Z,1015.40
2022-10-19T12:04:21.001Z,1015.44
2022-10-19T12:05:21.593Z,1015.42
2022-10-19T12:06:22.200Z,1015.43
2022-10-19T12:07:22.794Z,1015.41
2022-10-19T12:08:23.704Z,1015.46
2022-10-19T12:09:24.430Z,1015.59
2022-10-19T12:10:25.041Z,1015.55
2022-10-19T12:11:25.633Z,1015.45
2022-10-19T12:12:26.224Z,1015.48
2022-10-19T12:13:26.816Z,1015.59
2022-10-19T12:14:27.471Z,1015.63
2022-10-19T12:15:28.066Z,1015.49
2022-10-19T12:16:28.659Z,1015.46